createdAt,value
2022-11-04T00:02:30.688Z,3.03
2022-11-04T00:05:32.458Z,2.35
2022-11-04T00:08:33.974Z,2.80
2022-11-04T00:11:53.763Z,2.30
2022-11-04T00:15:14.979Z,2.83
2022-11-04T00:18:16.259Z,2.58
2022-11-04T00:21:35.951Z,2.67
2022-11-04T00:24:43.015Z,2.17
2022-11-04T00:28:02.745Z,1.80
2022-11-04T00:31:26.415Z,2.17
2022-11-04T00:34:27.690Z,2.20
2022-11-04T00:37:28.941Z,2.10
2022-11-04T00:40:30.209Z,1.65
2022-11-04T00:43:31.426Z,1.60
2022-11-04T00:46:33.432Z,1.42
2022-11-04T00:49:34.711Z,1.67
2022-11-04T00:52:36.005Z,1.33
2022-11-04T00:55:37.259Z,1.70
2022-11-04T00:58:38.616Z,1.90
2022-11-04T01:01:40.363Z,1.65
2022-11-04T01:04:41.795Z,1.33
2022-11-04T01:07:43.892Z,1.98
2022-11-04T01:10:45.324Z,2.10
2022-11-04T01:13:46.552Z,1.90
2022-11-04T01:16:49.192Z,1.80
2022-11-04T01:19:50.438Z,1.98
2022-11-04T01:22:51.669Z,1.40
2022-11-04T01:25:52.933Z,1.50
2022-11-04T01:28:55.014Z,1.63
2022-11-04T01:31:56.228Z,1.70
2022-11-04T01:34:57.518Z,1.65
2022-11-04T01:37:59.140Z,1.42
2022-11-04T01:41:00.405Z,2.08
2022-11-04T01:44:03.291Z,1.63
2022-11-04T01:47:04.851Z,1.73
2022-11-04T01:50:12.133Z,1.80
2022-11-04T01:53:16.169Z,1.50
2022-11-04T01:56:17.828Z,1.50
2022-11-04T01:59:21.200Z,1.10
2022-11-04T02:02:22.548Z,0.95
2022-11-04T02:05:23.859Z,0.95
2022-11-04T02:08:25.427Z,1.13
2022-11-04T02:11:45.101Z,1.08
2022-11-04T02:14:47.769Z,1.00
2022-11-04T02:17:48.967Z,1.02
2022-11-04T02:21:03.214Z,0.80
2022-11-04T02:24:07.649Z,1.30
2022-11-04T02:27:08.901Z,1.00
2022-11-04T02:30:12.192Z,1.30
2022-11-04T02:33:21.871Z,1.23
2022-11-04T02:36:32.800Z,0.82
2022-11-04T02:39:34.032Z,1.00
2022-11-04T02:42:53.809Z,0.73
2022-11-04T02:46:17.861Z,1.00
2022-11-04T02:49:23.092Z,0.98
2022-11-04T02:52:30.279Z,1.00
2022-11-04T02:55:54.512Z,0.80
2022-11-04T02:58:58.639Z,1.10
2022-11-04T03:02:01.155Z,1.10
2022-11-04T03:05:03.829Z,0.98
2022-11-04T03:08:11.045Z,1.42
2022-11-04T03:11:15.044Z,1.20
2022-11-04T03:14:18.731Z,0.75
2022-11-04T03:17:43.205Z,0.93
2022-11-04T03:20:46.216Z,0.88
2022-11-04T03:23:47.622Z,1.20
2022-11-04T03:27:07.669Z,1.00
2022-11-04T03:30:11.693Z,0.93
2022-11-04T03:33:18.750Z,0.73
2022-11-04T03:36:20.597Z,1.00
2022-11-04T03:39:21.852Z,1.30
2022-11-04T03:42:23.500Z,1.10
2022-11-04T03:45:25.188Z,0.77
2022-11-04T03:48:26.502Z,0.98
2022-11-04T03:51:27.720Z,1.10
2022-11-04T03:54:32.755Z,0.80
2022-11-04T03:57:36.527Z,0.80
2022-11-04T04:00:47.635Z,1.20
2022-11-04T04:03:57.902Z,1.15
2022-11-04T04:07:02.230Z,0.93
2022-11-04T04:10:31.965Z,0.90
2022-11-04T04:13:45.518Z,1.00
2022-11-04T04:16:47.494Z,0.90
2022-11-04T04:19:53.721Z,1.13
2022-11-04T04:23:03.992Z,0.80
2022-11-04T04:26:25.237Z,1.00
2022-11-04T04:29:27.860Z,0.80
2022-11-04T04:32:30.347Z,0.93
2022-11-04T04:35:43.742Z,0.95
2022-11-04T04:39:03.895Z,1.10
2022-11-04T04:42:24.009Z,1.45
2022-11-04T04:45:27.144Z,0.93
2022-11-04T04:48:28.440Z,0.95
2022-11-04T04:51:29.997Z,0.98
2022-11-04T04:54:31.236Z,1.20
2022-11-04T04:57:32.500Z,0.90
2022-11-04T05:00:33.825Z,1.60
2022-11-04T05:03:35.031Z,0.82
2022-11-04T05:06:36.310Z,0.88
2022-11-04T05:09:37.548Z,2.08
2022-11-04T05:12:58.072Z,1.10
2022-11-04T05:16:09.935Z,0.95
2022-11-04T05:19:11.262Z,1.10
2022-11-04T05:22:12.538Z,0.80
2022-11-04T05:25:13.873Z,1.15
2022-11-04T05:28:15.149Z,2.00
2022-11-04T05:31:16.413Z,1.98
2022-11-04T05:34:17.691Z,4.82
2022-11-04T05:37:18.966Z,2.65
2022-11-04T05:40:20.248Z,2.83
2022-11-04T05:43:21.484Z,2.80
2022-11-04T05:46:23.177Z,2.55
2022-11-04T05:49:24.464Z,1.83
2022-11-04T05:52:25.721Z,2.22
2022-11-04T05:55:27.060Z,3.85
2022-11-04T05:58:28.305Z,2.80
2022-11-04T06:01:34.401Z,2.70
2022-11-04T06:04:35.686Z,2.13
2022-11-04T06:07:36.940Z,1.30
2022-11-04T06:10:38.177Z,1.60
2022-11-04T06:13:39.390Z,2.00
2022-11-04T06:16:40.654Z,1.38
2022-11-04T06:19:42.088Z,1.77
2022-11-04T06:22:43.331Z,1.88
2022-11-04T06:25:44.549Z,1.70
2022-11-04T06:28:46.060Z,2.30
2022-11-04T06:31:47.290Z,2.10
2022-11-04T06:34:48.520Z,1.67
2022-11-04T06:37:49.746Z,1.55
2022-11-04T06:40:51.082Z,2.20
2022-11-04T06:43:52.368Z,5.30
2022-11-04T06:46:53.841Z,4.15
2022-11-04T06:49:55.080Z,3.63
2022-11-04T06:52:56.307Z,0.73
2022-11-04T06:56:02.090Z,1.73
2022-11-04T06:59:03.440Z,1.42
2022-11-04T07:02:04.998Z,1.27
2022-11-04T07:05:07.069Z,1.50
2022-11-04T07:08:09.232Z,1.70
2022-11-04T07:11:11.057Z,1.83
2022-11-04T07:14:12.664Z,1.70
2022-11-04T07:17:13.904Z,1.75
2022-11-04T07:20:15.260Z,1.60
2022-11-04T07:23:16.553Z,1.50
2022-11-04T07:26:17.922Z,1.05
2022-11-04T07:29:19.151Z,1.00
2022-11-04T07:32:20.432Z,0.90
2022-11-04T07:35:21.702Z,1.05
2022-11-04T07:38:22.949Z,1.00
2022-11-04T07:41:24.218Z,1.35
2022-11-04T07:44:25.502Z,0.98
2022-11-04T07:47:29.652Z,1.02
2022-11-04T07:50:31.100Z,1.17
2022-11-04T07:53:32.889Z,1.20
2022-11-04T07:56:34.123Z,1.90
2022-11-04T07:59:35.410Z,2.08
2022-11-04T08:02:36.728Z,2.13
2022-11-04T08:05:38.167Z,0.77
2022-11-04T08:08:39.697Z,1.33
2022-11-04T08:11:40.928Z,1.13
2022-11-04T08:14:42.208Z,0.82
2022-11-04T08:17:43.459Z,0.90
2022-11-04T08:20:51.020Z,1.42
2022-11-04T08:23:52.365Z,1.48
2022-11-04T08:26:53.665Z,1.00
2022-11-04T08:29:55.167Z,1.25
2022-11-04T08:32:56.410Z,0.80
2022-11-04T08:36:21.144Z,0.73
2022-11-04T08:39:22.424Z,0.82
2022-11-04T08:42:23.666Z,1.10
2022-11-04T08:45:27.751Z,1.23
2022-11-04T08:48:31.273Z,1.05
2022-11-04T08:51:33.310Z,1.52
2022-11-04T08:54:34.569Z,2.15
2022-11-04T08:57:35.936Z,1.83
2022-11-04T09:00:37.294Z,1.20
2022-11-04T09:03:39.540Z,1.45
2022-11-04T09:06:42.179Z,1.80
2022-11-04T09:09:43.582Z,1.33
2022-11-04T09:12:45.097Z,0.80
2022-11-04T09:15:48.848Z,1.13
2022-11-04T09:18:50.058Z,0.80
2022-11-04T09:21:51.406Z,1.02
2022-11-04T09:24:52.659Z,0.95
2022-11-04T09:27:53.917Z,1.20
2022-11-04T09:30:55.158Z,0.98
2022-11-04T09:33:56.776Z,1.60
2022-11-04T09:36:58.605Z,2.13
2022-11-04T09:39:59.831Z,1.02
2022-11-04T09:43:01.043Z,1.02
2022-11-04T09:46:02.697Z,1.67
2022-11-04T09:49:05.662Z,1.80
2022-11-04T09:52:13.921Z,1.60
2022-11-04T09:55:18.308Z,0.93
2022-11-04T10:01:31.972Z,0.82
2022-11-04T10:04:42.130Z,1.60
2022-11-04T10:08:01.964Z,1.35
2022-11-04T10:11:06.804Z,1.35
2022-11-04T10:14:10.263Z,1.35
2022-11-04T10:17:29.843Z,1.50
2022-11-04T10:20:50.102Z,1.00
2022-11-04T10:23:51.477Z,1.70
2022-11-04T10:26:56.089Z,1.30
2022-11-04T10:30:06.909Z,1.33
2022-11-04T10:33:24.824Z,1.20
2022-11-04T10:36:26.139Z,1.13
2022-11-04T10:39:29.424Z,1.58
2022-11-04T10:42:30.659Z,1.45
2022-11-04T10:45:38.316Z,1.10
2022-11-04T10:48:51.723Z,1.10
2022-11-04T10:51:53.945Z,1.27
2022-11-04T10:54:55.252Z,0.98
2022-11-04T10:57:59.413Z,1.08
2022-11-04T11:04:06.821Z,0.95
2022-11-04T11:07:09.583Z,1.10
2022-11-04T11:10:19.740Z,1.10
2022-11-04T11:13:26.136Z,1.27
2022-11-04T11:16:27.940Z,1.10
2022-11-04T11:19:31.547Z,0.82
2022-11-04T11:22:43.445Z,1.00
2022-11-04T11:25:49.505Z,1.30
2022-11-04T11:28:58.399Z,1.13
2022-11-04T11:32:00.820Z,1.08
2022-11-04T11:35:07.748Z,0.90
2022-11-04T11:38:21.921Z,1.30
2022-11-04T11:41:31.181Z,1.20
2022-11-04T11:44:37.350Z,0.88
2022-11-04T11:47:42.188Z,0.95
2022-11-04T11:50:53.732Z,0.90
2022-11-04T11:54:16.337Z,1.33
2022-11-04T11:57:32.742Z,1.10
2022-11-04T12:00:39.624Z,1.45
2022-11-04T12:10:53.650Z,1.10
2022-11-04T12:13:57.351Z,1.08
2022-11-04T12:17:04.686Z,1.40
2022-11-04T12:20:24.696Z,1.02
2022-11-04T12:23:39.355Z,1.00
2022-11-04T12:27:12.864Z,0.93
2022-11-04T12:30:17.509Z,1.35
2022-11-04T12:33:28.417Z,1.15
2022-11-04T12:36:39.712Z,1.40
2022-11-04T12:40:03.046Z,1.58
2022-11-04T12:43:21.465Z,1.73
2022-11-04T12:46:32.333Z,1.80
2022-11-04T12:52:47.073Z,1.27
2022-11-04T12:55:48.380Z,1.63
2022-11-04T12:59:08.678Z,1.13
2022-11-04T13:02:16.869Z,1.92
2022-11-04T13:05:21.039Z,1.10
2022-11-04T13:08:32.326Z,1.90
2022-11-04T13:11:40.522Z,0.93
2022-11-04T13:14:47.235Z,1.70
2022-11-04T13:17:50.704Z,0.90
2022-11-04T13:21:02.997Z,1.13
2022-11-04T13:24:06.169Z,1.45
2022-11-04T13:27:17.764Z,1.02
2022-11-04T13:30:22.166Z,0.93
2022-11-04T13:33:26.582Z,1.02
2022-11-04T13:36:46.633Z,1.55
2022-11-04T13:39:51.720Z,1.38
2022-11-04T13:43:30.790Z,1.15
2022-11-04T13:46:33.375Z,1.67
2022-11-04T13:49:37.032Z,1.33
2022-11-04T13:52:52.308Z,1.13
2022-11-04T13:55:54.151Z,2.17
2022-11-04T13:58:58.196Z,1.50
2022-11-04T14:02:28.992Z,1.10
2022-11-04T14:05:31.141Z,1.23
2022-11-04T14:08:32.897Z,1.10
2022-11-04T14:11:54.078Z,1.20
2022-11-04T14:15:04.879Z,1.23
2022-11-04T14:18:25.781Z,1.90
2022-11-04T14:21:27.664Z,1.88
2022-11-04T14:24:28.905Z,1.02
2022-11-04T14:27:36.072Z,1.08
2022-11-04T14:30:43.354Z,1.30
2022-11-04T14:33:54.812Z,1.52
2022-11-04T14:37:00.486Z,1.05
2022-11-04T14:40:04.322Z,1.17
2022-11-04T14:43:06.033Z,1.40
2022-11-04T14:46:07.814Z,1.40
2022-11-04T14:49:25.737Z,1.08
2022-11-04T14:52:27.030Z,1.55
2022-11-04T14:55:31.692Z,1.02
2022-11-04T14:58:33.061Z,1.45
2022-11-04T15:01:36.499Z,2.15
2022-11-04T15:04:37.945Z,1.13
2022-11-04T15:07:39.690Z,1.33
2022-11-04T15:10:40.962Z,1.17
2022-11-04T15:13:49.470Z,1.70
2022-11-04T15:16:53.095Z,1.23
2022-11-04T15:19:55.928Z,1.13
2022-11-04T15:22:58.655Z,1.33
2022-11-04T15:25:59.933Z,1.02
2022-11-04T15:29:03.394Z,1.92
2022-11-04T15:32:05.643Z,1.33
2022-11-04T15:35:12.418Z,3.53
2022-11-04T15:38:14.381Z,1.83
2022-11-04T15:41:38.585Z,1.73
2022-11-04T15:44:44.791Z,1.83
2022-11-04T15:47:46.044Z,1.63
2022-11-04T15:50:47.460Z,1.73
2022-11-04T15:53:51.509Z,1.58
2022-11-04T15:56:55.185Z,1.58
2022-11-04T16:00:19.710Z,1.60
2022-11-04T16:03:22.571Z,1.48
2022-11-04T16:06:34.593Z,1.27
2022-11-04T16:10:09.589Z,1.38
2022-11-04T16:13:14.003Z,1.67
2022-11-04T16:16:20.130Z,2.40
2022-11-04T16:19:23.574Z,2.50
2022-11-04T16:22:32.892Z,2.10
2022-11-04T16:25:35.176Z,2.67
2022-11-04T16:28:37.940Z,1.73
2022-11-04T16:31:39.896Z,1.77
2022-11-04T16:34:41.158Z,1.38
2022-11-04T16:37:42.425Z,1.45
2022-11-04T16:40:45.434Z,1.80
2022-11-04T16:43:47.646Z,1.90
2022-11-04T16:46:49.279Z,2.80
2022-11-04T16:49:50.535Z,2.28
2022-11-04T16:52:51.852Z,2.50
2022-11-04T16:55:54.668Z,1.83
2022-11-04T16:58:55.900Z,1.80
2022-11-04T17:01:57.235Z,1.13
2022-11-04T17:04:58.574Z,1.85
2022-11-04T17:08:04.762Z,1.65
2022-11-04T17:11:06.218Z,2.35
2022-11-04T17:14:07.469Z,2.10
2022-11-04T17:17:09.915Z,2.50
2022-11-04T17:20:12.354Z,1.95
2022-11-04T17:23:14.669Z,2.10
2022-11-04T17:26:16.144Z,2.45
2022-11-04T17:29:17.687Z,2.60
2022-11-04T17:32:19.971Z,3.75
2022-11-04T17:35:22.183Z,2.50
2022-11-04T17:38:23.487Z,2.55
2022-11-04T17:41:43.594Z,2.90
2022-11-04T17:44:44.867Z,4.20
2022-11-04T17:47:46.440Z,4.55
2022-11-04T17:50:47.676Z,3.83
2022-11-04T17:53:49.262Z,2.90
2022-11-04T17:56:50.896Z,3.45
2022-11-04T17:59:52.329Z,2.70
2022-11-04T18:02:53.645Z,2.67
2022-11-04T18:05:58.565Z,2.70
2022-11-04T18:09:00.231Z,3.10
2022-11-04T18:12:20.295Z,3.63
2022-11-04T18:15:21.884Z,2.38
2022-11-04T18:18:23.233Z,2.72
2022-11-04T18:21:24.580Z,2.88
2022-11-04T18:24:25.917Z,2.38
2022-11-04T18:27:27.227Z,2.80
2022-11-04T18:30:28.484Z,2.30
2022-11-04T18:33:29.743Z,2.22
2022-11-04T18:36:33.802Z,2.42
2022-11-04T18:39:35.097Z,2.63
2022-11-04T18:42:36.367Z,2.30
2022-11-04T18:45:37.842Z,2.33
2022-11-04T18:48:39.804Z,1.95
2022-11-04T18:51:41.447Z,2.38
2022-11-04T18:54:43.271Z,2.30
2022-11-04T18:57:45.458Z,2.50
2022-11-04T19:00:47.143Z,4.38
2022-11-04T19:03:49.157Z,3.15
2022-11-04T19:06:50.417Z,3.55
2022-11-04T19:09:51.668Z,3.85
2022-11-04T19:13:11.664Z,3.15
2022-11-04T19:16:12.993Z,2.58
2022-11-04T19:19:17.783Z,4.13
2022-11-04T19:22:19.025Z,3.80
2022-11-04T19:25:20.302Z,3.30
2022-11-04T19:28:40.426Z,3.08
2022-11-04T19:31:42.762Z,3.22
2022-11-04T19:34:44.064Z,3.53
2022-11-04T19:37:45.318Z,2.65
2022-11-04T19:40:50.932Z,3.20
2022-11-04T19:43:53.326Z,3.53
2022-11-04T19:46:54.748Z,3.80
2022-11-04T19:49:56.048Z,3.53
2022-11-04T19:52:57.313Z,3.80
2022-11-04T19:55:58.656Z,4.22
2022-11-04T19:59:04.767Z,3.30
2022-11-04T20:02:07.579Z,3.22
2022-11-04T20:05:09.278Z,2.85
2022-11-04T20:08:11.130Z,3.78
2022-11-04T20:11:13.539Z,3.22
2022-11-04T20:14:17.247Z,3.78
2022-11-04T20:17:18.513Z,3.53
2022-11-04T20:20:19.822Z,3.75
2022-11-04T20:23:21.152Z,3.45
2022-11-04T20:26:24.195Z,3.10
2022-11-04T20:29:25.602Z,3.63
2022-11-04T20:32:26.868Z,3.47
2022-11-04T20:35:28.120Z,3.53
2022-11-04T20:38:29.393Z,3.10
2022-11-04T20:41:30.804Z,3.40
2022-11-04T20:44:32.363Z,2.30
2022-11-04T20:47:33.824Z,3.20
2022-11-04T20:50:36.009Z,2.60
2022-11-04T20:53:37.544Z,2.10
2022-11-04T20:56:39.697Z,3.45
2022-11-04T20:59:40.992Z,2.42
2022-11-04T21:02:42.318Z,2.75
2022-11-04T21:05:44.018Z,4.25
2022-11-04T21:08:45.544Z,2.78
2022-11-04T21:11:47.383Z,2.80
2022-11-04T21:14:48.609Z,2.90
2022-11-04T21:17:49.837Z,3.53
2022-11-04T21:20:51.610Z,3.20
2022-11-04T21:23:55.694Z,3.60
2022-11-04T21:26:56.976Z,4.70
2022-11-04T21:29:58.223Z,4.25
2022-11-04T21:32:59.507Z,4.50
2022-11-04T21:36:01.787Z,4.13
2022-11-04T21:39:03.272Z,3.78
2022-11-04T21:42:04.643Z,3.50
2022-11-04T21:45:06.113Z,3.60
2022-11-04T21:48:07.538Z,3.10
2022-11-04T21:51:10.412Z,4.32
2022-11-04T21:54:11.788Z,3.22
2022-11-04T21:57:13.048Z,3.13
2022-11-04T22:00:14.527Z,2.83
2022-11-04T22:03:15.790Z,2.67
2022-11-04T22:06:17.142Z,3.30
2022-11-04T22:09:18.543Z,2.80
2022-11-04T22:12:19.828Z,2.50
2022-11-04T22:15:39.608Z,2.72
2022-11-04T22:18:41.158Z,2.10
2022-11-04T22:21:43.639Z,2.70
2022-11-04T22:25:02.916Z,2.05
2022-11-04T22:28:04.307Z,2.17
2022-11-04T22:31:06.674Z,2.03
2022-11-04T22:34:07.926Z,2.17
2022-11-04T22:37:09.225Z,2.10
2022-11-04T22:40:10.630Z,2.15
2022-11-04T22:43:12.097Z,2.03
2022-11-04T22:46:15.417Z,2.70
2022-11-04T22:49:16.670Z,2.65
2022-11-04T22:52:17.956Z,2.90
2022-11-04T22:55:19.228Z,2.53
2022-11-04T22:58:20.473Z,2.58
2022-11-04T23:01:22.286Z,2.28
2022-11-04T23:04:23.716Z,2.38
2022-11-04T23:07:25.013Z,2.78
2022-11-04T23:10:45.836Z,2.75
2022-11-04T23:14:18.727Z,2.92
2022-11-04T23:17:40.744Z,2.58
2022-11-04T23:20:42.197Z,2.45
2022-11-04T23:24:01.827Z,2.58
2022-11-04T23:27:03.402Z,2.97
2022-11-04T23:30:21.026Z,3.25
2022-11-04T23:33:42.262Z,2.78
2022-11-04T23:37:02.246Z,2.20
2022-11-04T23:40:03.659Z,2.22
2022-11-04T23:43:05.033Z,2.22
2022-11-04T23:46:24.873Z,2.60
2022-11-04T23:49:44.809Z,2.80
2022-11-04T23:53:04.909Z,2.92
2022-11-04T23:56:27.945Z,2.13
2022-11-04T23:59:47.717Z,2.38
